Time;durP1;ratioP1;P1;durP2;ratioP2;P2;SDS_P1;SDS_P2;PMS_P1;PMS_P2;Temp;Humidity;BMP_temperature;BMP_pressure;BME280_temperature;BME280_humidity;BME280_pressure;Samples;Min_cycle;Max_cycle;Signal;HPM_P1;HPM_P2
2021/08/25 00:00:42;;;;;;;3.90;2.50;;;14.10;1.00;;;;;;5077595;28;20462;-76
2021/08/25 00:03:11;;;;;;;4.77;3.10;;;14.10;61.20;;;;;;5077947;28;20454;-76
2021/08/25 00:05:37;;;;;;;4.80;3.33;;;14.10;99.90;;;;;;5077308;28;20458;-77
2021/08/25 00:08:05;;;;;;;4.40;3.37;;;14.00;99.90;;;;;;5076769;28;20478;-76
2021/08/25 00:10:32;;;;;;;4.20;3.07;;;14.00;99.90;;;;;;5077629;28;20458;-76
2021/08/25 00:12:59;;;;;;;4.47;3.40;;;13.90;99.90;;;;;;5075558;28;20469;-76
2021/08/25 00:15:26;;;;;;;4.70;3.33;;;13.90;1.00;;;;;;5076579;28;20527;-76
2021/08/25 00:17:53;;;;;;;3.70;2.43;;;13.90;1.00;;;;;;5076467;28;20462;-76
2021/08/25 00:20:21;;;;;;;5.17;3.23;;;13.80;1.00;;;;;;5076273;28;20462;-76
2021/08/25 00:22:47;;;;;;;5.50;3.23;;;13.80;1.00;;;;;;5076400;28;20458;-76
2021/08/25 00:25:14;;;;;;;6.40;4.60;;;13.80;1.00;;;;;;5076406;28;20454;-76
2021/08/25 00:27:41;;;;;;;5.23;3.17;;;13.70;1.00;;;;;;5078382;28;20508;-76
2021/08/25 00:30:09;;;;;;;7.03;3.30;;;13.70;1.00;;;;;;5075720;28;20458;-76
2021/08/25 00:32:35;;;;;;;7.80;3.47;;;13.70;1.00;;;;;;5075069;28;20477;-75
2021/08/25 00:35:02;;;;;;;5.07;3.10;;;13.70;1.00;;;;;;5074803;28;20458;-75
2021/08/25 00:37:30;;;;;;;5.00;3.00;;;13.70;1.00;;;;;;5074820;28;20450;-76
2021/08/25 00:39:57;;;;;;;4.70;3.03;;;13.70;98.70;;;;;;5075164;28;20465;-76
2021/08/25 00:42:24;;;;;;;4.83;2.63;;;13.70;99.90;;;;;;5074877;28;20878;-76
2021/08/25 00:44:51;;;;;;;8.97;4.10;;;13.70;99.90;;;;;;5073921;28;20487;-76
2021/08/25 00:47:18;;;;;;;4.20;2.93;;;13.60;99.90;;;;;;5074389;28;20485;-76
2021/08/25 00:49:45;;;;;;;4.20;3.20;;;13.60;99.90;;;;;;5075043;28;20465;-76
2021/08/25 00:52:12;;;;;;;4.93;3.47;;;13.60;99.90;;;;;;5074661;28;20482;-76
2021/08/25 00:54:40;;;;;;;4.17;2.70;;;13.60;99.90;;;;;;5074043;28;20481;-76
2021/08/25 00:57:07;;;;;;;5.57;3.00;;;13.60;99.90;;;;;;5074758;28;20480;-76
2021/08/25 00:59:34;;;;;;;5.97;3.10;;;13.60;99.90;;;;;;5074827;28;20454;-76
2021/08/25 01:02:07;;;;;;;4.70;3.00;;;13.60;99.90;;;;;;5074799;28;20454;-76
2021/08/25 01:04:42;;;;;;;4.10;2.80;;;13.60;99.90;;;;;;5074545;28;20446;-76
2021/08/25 01:07:11;;;;;;;7.83;3.00;;;13.50;99.90;;;;;;5073945;28;20465;-76
2021/08/25 01:09:39;;;;;;;7.20;3.73;;;13.50;99.90;;;;;;5074059;28;20454;-76
2021/08/25 01:12:09;;;;;;;4.23;3.03;;;13.50;99.90;;;;;;5074375;28;20477;-76
2021/08/25 01:14:36;;;;;;;5.80;2.80;;;13.50;99.90;;;;;;5074211;28;20454;-76
2021/08/25 01:17:04;;;;;;;4.30;2.90;;;13.50;99.90;;;;;;5074199;28;20461;-76
2021/08/25 01:19:33;;;;;;;7.20;3.27;;;13.50;99.90;;;;;;5074790;28;20458;-76
2021/08/25 01:22:00;;;;;;;4.47;3.27;;;13.40;99.90;;;;;;5074396;28;20460;-76
2021/08/25 01:24:27;;;;;;;4.23;3.30;;;13.40;99.90;;;;;;5074277;28;20460;-77
2021/08/25 01:26:58;;;;;;;4.93;3.07;;;13.40;99.90;;;;;;5074068;28;20478;-76
2021/08/25 01:29:32;;;;;;;5.23;2.77;;;13.30;99.90;;;;;;5074356;28;20513;-76
2021/08/25 01:32:00;;;;;;;5.70;3.00;;;13.30;99.90;;;;;;5074243;28;20442;-76
2021/08/25 01:34:26;;;;;;;4.40;2.70;;;13.30;99.90;;;;;;5074011;28;20454;-75
2021/08/25 01:36:55;;;;;;;4.60;2.87;;;13.20;99.90;;;;;;5074597;28;20454;-76
2021/08/25 01:39:22;;;;;;;3.90;2.97;;;13.20;99.90;;;;;;5074544;28;20450;-76
2021/08/25 01:41:50;;;;;;;5.13;3.50;;;13.20;99.90;;;;;;5074145;28;20804;-75
2021/08/25 01:44:17;;;;;;;3.07;2.37;;;13.20;99.90;;;;;;5074019;28;20439;-76
2021/08/25 01:46:45;;;;;;;3.33;2.60;;;13.10;99.90;;;;;;5073719;28;20485;-75
2021/08/25 01:49:15;;;;;;;4.27;3.10;;;13.10;99.90;;;;;;5074787;28;20469;-75
2021/08/25 01:51:43;;;;;;;10.27;3.57;;;13.10;99.90;;;;;;5074196;28;20742;-76
2021/08/25 01:54:13;;;;;;;4.13;3.10;;;13.10;99.90;;;;;;5073966;28;20454;-75
2021/08/25 01:56:40;;;;;;;3.60;3.10;;;13.10;99.90;;;;;;5073924;28;20493;-75
2021/08/25 01:59:08;;;;;;;6.00;3.40;;;13.00;99.90;;;;;;5073999;28;20553;-76
2021/08/25 02:01:35;;;;;;;4.57;3.20;;;13.00;99.90;;;;;;5073915;28;20458;-76
2021/08/25 02:04:03;;;;;;;5.77;3.33;;;13.00;99.90;;;;;;5073846;28;20462;-76
2021/08/25 02:06:30;;;;;;;4.50;3.30;;;13.00;99.90;;;;;;5077567;28;20776;-76
2021/08/25 02:08:57;;;;;;;5.10;3.23;;;13.00;99.90;;;;;;5077195;28;20465;-76
2021/08/25 02:11:24;;;;;;;4.53;3.50;;;13.00;99.90;;;;;;5077423;28;20462;-76
2021/08/25 02:13:51;;;;;;;4.40;3.40;;;12.90;99.90;;;;;;5077744;28;20462;-76
2021/08/25 02:16:18;;;;;;;6.23;3.90;;;12.90;99.90;;;;;;5077345;28;20462;-76
2021/08/25 02:18:45;;;;;;;5.87;4.00;;;12.90;99.90;;;;;;5077716;28;20450;-76
2021/08/25 02:21:14;;;;;;;5.87;3.43;;;12.80;99.90;;;;;;5077466;28;20488;-76
2021/08/25 02:23:41;;;;;;;6.53;3.77;;;12.80;99.90;;;;;;5077261;28;20465;-75
2021/08/25 02:26:15;;;;;;;4.27;3.47;;;12.80;99.90;;;;;;5077254;28;20469;-76
2021/08/25 02:28:43;;;;;;;8.43;3.83;;;12.80;99.90;;;;;;5076926;28;20462;-75
2021/08/25 02:31:09;;;;;;;6.23;3.70;;;12.70;99.90;;;;;;5077238;28;20462;-76
2021/08/25 02:33:36;;;;;;;7.63;3.67;;;12.70;99.90;;;;;;5077299;28;20477;-76
2021/08/25 02:36:05;;;;;;;4.20;3.40;;;12.60;99.90;;;;;;5077171;28;20462;-76
2021/08/25 02:38:35;;;;;;;4.63;3.57;;;12.60;99.90;;;;;;5077274;28;20820;-76
2021/08/25 02:41:02;;;;;;;6.90;4.30;;;12.60;99.90;;;;;;5076909;28;20953;-75
2021/08/25 02:43:28;;;;;;;5.53;4.10;;;12.60;99.90;;;;;;5076774;28;20837;-76
2021/08/25 02:45:55;;;;;;;6.67;4.13;;;12.50;99.90;;;;;;5076926;28;20459;-76
2021/08/25 02:48:22;;;;;;;4.83;3.83;;;12.50;99.90;;;;;;5076761;28;20489;-76
2021/08/25 02:50:49;;;;;;;5.60;4.03;;;12.50;99.90;;;;;;5076524;28;20468;-76
2021/08/25 02:53:16;;;;;;;4.90;3.97;;;12.50;99.90;;;;;;5076603;28;20458;-76
2021/08/25 02:55:47;;;;;;;5.80;4.07;;;12.50;99.90;;;;;;5076876;28;20552;-76
2021/08/25 02:58:14;;;;;;;4.53;3.93;;;12.40;99.90;;;;;;5076310;28;20435;-75
2021/08/25 03:00:41;;;;;;;7.03;4.00;;;12.40;99.90;;;;;;5076252;28;20773;-75
2021/08/25 03:03:08;;;;;;;8.90;3.47;;;12.40;99.90;;;;;;5076649;28;20454;-75
2021/08/25 03:05:35;;;;;;;6.93;4.60;;;12.40;99.90;;;;;;5076439;28;20454;-76
2021/08/25 03:08:02;;;;;;;6.60;3.90;;;12.40;99.90;;;;;;5076132;28;20798;-76
2021/08/25 03:10:29;;;;;;;7.10;3.70;;;12.40;99.90;;;;;;5076648;28;20458;-76
2021/08/25 03:12:57;;;;;;;6.83;3.57;;;12.40;99.90;;;;;;5076415;28;20462;-76
2021/08/25 03:15:24;;;;;;;5.30;3.23;;;12.40;99.90;;;;;;5076029;28;20508;-76
2021/08/25 03:17:50;;;;;;;7.40;3.97;;;12.40;99.90;;;;;;5075265;28;20454;-76
2021/08/25 03:20:18;;;;;;;5.77;3.50;;;12.50;99.90;;;;;;5076009;28;20458;-76
2021/08/25 03:22:45;;;;;;;5.60;3.43;;;12.50;99.90;;;;;;5075380;28;20458;-76
2021/08/25 03:25:12;;;;;;;3.97;3.30;;;12.40;99.90;;;;;;5075765;28;20457;-76
2021/08/25 03:27:39;;;;;;;5.40;3.60;;;12.40;99.90;;;;;;5076062;28;20474;-76
2021/08/25 03:30:08;;;;;;;5.80;3.50;;;12.40;99.90;;;;;;5075678;28;20454;-76
2021/08/25 03:32:35;;;;;;;4.10;3.10;;;12.40;99.90;;;;;;5075606;28;20511;-76
2021/08/25 03:35:02;;;;;;;5.93;3.80;;;12.40;99.90;;;;;;5075790;28;20454;-76
2021/08/25 03:37:29;;;;;;;5.03;4.27;;;12.30;99.90;;;;;;5075907;28;20454;-76
2021/08/25 03:39:56;;;;;;;5.63;3.43;;;12.30;99.90;;;;;;5075561;28;20462;-76
2021/08/25 03:42:22;;;;;;;4.33;3.50;;;12.30;99.90;;;;;;5075517;28;20861;-76
2021/08/25 03:44:49;;;;;;;4.40;3.50;;;12.20;99.90;;;;;;5075375;28;20451;-76
2021/08/25 03:47:17;;;;;;;4.50;3.30;;;12.20;99.90;;;;;;5075315;28;20462;-76
2021/08/25 03:49:44;;;;;;;5.63;4.00;;;12.10;99.90;;;;;;5075562;28;20459;-76
2021/08/25 03:52:11;;;;;;;9.23;3.80;;;12.00;99.90;;;;;;5075401;28;20468;-76
2021/08/25 03:54:37;;;;;;;4.47;3.80;;;12.00;99.90;;;;;;5075364;28;20462;-76
2021/08/25 03:57:04;;;;;;;5.60;3.30;;;12.00;99.90;;;;;;5075311;28;20458;-76
2021/08/25 03:59:31;;;;;;;5.27;3.57;;;12.00;99.90;;;;;;5075403;28;20469;-76
2021/08/25 04:01:58;;;;;;;4.40;3.60;;;12.00;99.90;;;;;;5074970;28;20460;-76
2021/08/25 04:04:28;;;;;;;7.47;4.00;;;11.90;99.90;;;;;;5075221;28;20458;-76
2021/08/25 04:06:54;;;;;;;5.33;3.03;;;11.90;99.90;;;;;;5075036;28;20454;-77
2021/08/25 04:09:21;;;;;;;6.13;3.30;;;11.90;99.90;;;;;;5075256;28;20489;-76
2021/08/25 04:11:50;;;;;;;7.77;4.00;;;11.90;99.90;;;;;;5075822;28;20465;-76
2021/08/25 04:14:17;;;;;;;4.50;3.70;;;11.90;99.90;;;;;;5075010;28;20465;-76
2021/08/25 04:16:43;;;;;;;5.20;3.60;;;11.90;99.90;;;;;;5074665;28;20473;-76
2021/08/25 04:19:10;;;;;;;6.17;3.70;;;11.90;99.90;;;;;;5074752;28;20902;-77
2021/08/25 04:21:38;;;;;;;6.80;3.50;;;11.90;99.90;;;;;;5075186;28;20458;-76
2021/08/25 04:24:05;;;;;;;5.30;3.80;;;11.90;99.90;;;;;;5074944;28;20484;-74
2021/08/25 04:26:32;;;;;;;4.90;3.47;;;11.90;99.90;;;;;;5074607;28;20466;-73
2021/08/25 04:28:59;;;;;;;5.40;3.30;;;11.90;99.90;;;;;;5074065;28;20474;-73
2021/08/25 04:31:26;;;;;;;5.10;3.50;;;11.90;99.90;;;;;;5074815;28;20469;-73
2021/08/25 04:33:52;;;;;;;4.90;3.57;;;11.90;99.90;;;;;;5074730;28;20883;-74
2021/08/25 04:36:19;;;;;;;4.43;3.03;;;11.90;99.90;;;;;;5074326;28;20450;-74
2021/08/25 04:38:47;;;;;;;4.90;3.83;;;11.90;99.90;;;;;;5074982;28;20553;-73
2021/08/25 04:41:14;;;;;;;5.47;3.17;;;12.00;99.90;;;;;;5074865;28;20492;-73
2021/08/25 04:43:41;;;;;;;5.03;3.80;;;12.00;99.90;;;;;;5074517;28;20482;-73
2021/08/25 04:46:07;;;;;;;6.73;3.93;;;12.00;99.90;;;;;;5074780;28;20481;-74
2021/08/25 04:48:35;;;;;;;6.67;3.80;;;12.10;99.90;;;;;;5074895;28;20474;-74
2021/08/25 04:51:02;;;;;;;7.63;4.03;;;12.10;99.90;;;;;;5074996;28;20911;-74
2021/08/25 04:53:28;;;;;;;5.97;3.63;;;12.10;99.90;;;;;;5074852;28;20466;-74
2021/08/25 04:55:56;;;;;;;6.83;3.70;;;12.20;99.90;;;;;;5074566;28;20553;-74
2021/08/25 04:58:23;;;;;;;39.27;24.40;;;12.20;99.90;;;;;;5074130;28;20461;-74
2021/08/25 05:00:51;;;;;;;37.27;24.33;;;12.30;99.90;;;;;;5074378;28;20462;-74
2021/08/25 05:03:18;;;;;;;8.67;4.90;;;12.30;99.90;;;;;;5074282;28;20454;-74
2021/08/25 05:05:47;;;;;;;7.80;3.93;;;12.40;99.90;;;;;;5074048;28;20442;-74
2021/08/25 05:08:14;;;;;;;7.53;4.23;;;12.50;99.90;;;;;;5074417;28;20547;-74
2021/08/25 05:10:40;;;;;;;6.23;3.70;;;12.50;99.90;;;;;;5074355;28;20461;-75
2021/08/25 05:13:08;;;;;;;4.40;3.67;;;12.60;99.90;;;;;;5073860;28;20465;-74
2021/08/25 05:15:35;;;;;;;6.10;4.43;;;12.60;99.90;;;;;;5074299;28;20539;-74
2021/08/25 05:18:02;;;;;;;6.43;4.20;;;12.60;99.90;;;;;;5074442;28;20518;-74
2021/08/25 05:20:29;;;;;;;7.20;4.37;;;12.60;99.90;;;;;;5074011;28;20489;-74
2021/08/25 05:22:57;;;;;;;5.27;4.40;;;12.60;99.90;;;;;;5074099;28;20454;-75
2021/08/25 05:25:23;;;;;;;6.20;4.47;;;12.60;99.90;;;;;;5073737;28;20526;-75
2021/08/25 05:27:51;;;;;;;8.73;5.37;;;12.70;99.90;;;;;;5073906;28;20470;-74
2021/08/25 05:30:19;;;;;;;6.40;4.97;;;12.70;99.90;;;;;;5074067;28;20936;-74
2021/08/25 05:32:51;;;;;;;6.63;4.13;;;12.70;99.90;;;;;;5073746;28;20458;-74
2021/08/25 05:35:18;;;;;;;9.80;6.47;;;12.70;99.90;;;;;;5073979;28;20446;-74
2021/08/25 05:37:45;;;;;;;7.47;4.40;;;12.80;99.90;;;;;;5073959;28;20454;-73
2021/08/25 05:40:12;;;;;;;7.07;4.50;;;12.90;99.90;;;;;;5076144;28;20811;-74
2021/08/25 05:42:39;;;;;;;7.43;4.40;;;13.00;99.90;;;;;;5077579;28;20539;-75
2021/08/25 05:45:07;;;;;;;8.53;4.60;;;13.10;99.90;;;;;;5077581;28;20910;-75
2021/08/25 05:47:35;;;;;;;5.00;4.03;;;13.30;99.90;;;;;;5077926;28;20458;-75
2021/08/25 05:50:02;;;;;;;7.77;4.50;;;13.40;99.90;;;;;;5077784;28;20997;-74
2021/08/25 05:52:29;;;;;;;6.40;3.70;;;13.50;99.90;;;;;;5077738;28;20784;-75
2021/08/25 05:54:56;;;;;;;6.07;4.60;;;13.60;99.90;;;;;;5077128;28;20468;-74
2021/08/25 05:57:23;;;;;;;10.67;4.80;;;13.70;99.90;;;;;;5077752;28;20465;-74
2021/08/25 05:59:50;;;;;;;5.27;4.10;;;13.80;99.90;;;;;;5077082;28;20450;-74
2021/08/25 06:02:16;;;;;;;6.87;4.00;;;13.90;99.90;;;;;;5078300;28;20465;-75
2021/08/25 06:04:44;;;;;;;5.50;3.70;;;14.00;99.90;;;;;;5078226;28;20553;-76
2021/08/25 06:07:12;;;;;;;5.10;3.40;;;14.20;99.90;;;;;;5077370;28;20481;-76
2021/08/25 06:09:41;;;;;;;7.20;4.00;;;14.30;99.90;;;;;;5077770;28;20481;-76
2021/08/25 06:12:08;;;;;;;7.63;4.67;;;14.40;99.90;;;;;;5077574;28;20469;-76
2021/08/25 06:14:35;;;;;;;6.53;4.20;;;14.40;99.90;;;;;;5077665;28;20454;-75
2021/08/25 06:17:02;;;;;;;6.73;4.20;;;14.50;99.90;;;;;;5077925;28;20454;-77
2021/08/25 06:19:29;;;;;;;4.60;3.97;;;14.60;99.90;;;;;;5078372;28;20453;-76
2021/08/25 06:21:57;;;;;;;9.47;4.30;;;14.60;99.90;;;;;;5077449;28;20450;-76
2021/08/25 06:24:24;;;;;;;6.40;4.13;;;14.60;99.90;;;;;;5077408;28;20503;-76
2021/08/25 06:26:50;;;;;;;5.90;3.87;;;14.70;99.90;;;;;;5077013;28;20454;-76
2021/08/25 06:29:17;;;;;;;6.73;4.20;;;14.80;99.90;;;;;;5077855;28;20489;-75
2021/08/25 06:31:44;;;;;;;8.47;4.70;;;14.90;99.90;;;;;;5077838;28;20462;-72
2021/08/25 06:34:11;;;;;;;5.37;4.20;;;15.00;99.90;;;;;;5077781;28;20458;-75
2021/08/25 06:36:40;;;;;;;8.07;4.90;;;15.10;99.90;;;;;;5077283;28;20458;-74
2021/08/25 06:39:08;;;;;;;7.67;4.30;;;15.30;99.90;;;;;;5077509;28;20789;-74
2021/08/25 06:41:35;;;;;;;5.90;3.93;;;15.30;99.90;;;;;;5077638;28;20476;-74
2021/08/25 06:44:02;;;;;;;8.47;4.27;;;15.30;1.00;;;;;;5076809;28;20489;-75
2021/08/25 06:46:29;;;;;;;8.47;3.87;;;15.40;1.00;;;;;;5078036;28;20454;-75
2021/08/25 06:48:56;;;;;;;7.17;3.87;;;15.50;1.00;;;;;;5076883;28;20477;-74
2021/08/25 06:51:23;;;;;;;4.73;3.77;;;15.50;1.00;;;;;;5075826;28;20465;-75
2021/08/25 06:53:50;;;;;;;7.33;3.60;;;15.60;99.90;;;;;;5078449;28;20763;-73
2021/08/25 06:56:18;;;;;;;6.53;3.77;;;15.60;1.00;;;;;;5077301;28;20461;-74
2021/08/25 06:58:44;;;;;;;3.93;2.77;;;15.70;1.00;;;;;;5077096;28;20910;-74
2021/08/25 07:01:11;;;;;;;5.17;3.00;;;15.80;99.90;;;;;;5077978;28;20450;-72
2021/08/25 07:03:38;;;;;;;4.67;2.40;;;15.80;1.00;;;;;;5078153;28;20469;-73
2021/08/25 07:06:05;;;;;;;4.13;2.60;;;15.80;1.00;;;;;;5077027;28;20461;-74
2021/08/25 07:08:31;;;;;;;6.70;3.00;;;15.80;1.00;;;;;;5076731;28;20504;-74
2021/08/25 07:10:58;;;;;;;4.03;2.87;;;15.70;1.00;;;;;;5076752;28;20458;-75
2021/08/25 07:13:26;;;;;;;4.40;2.93;;;15.80;1.00;;;;;;5076017;28;20462;-74
2021/08/25 07:15:53;;;;;;;4.07;2.97;;;15.80;1.00;;;;;;5076106;28;20458;-74
2021/08/25 07:18:20;;;;;;;4.03;3.00;;;15.90;1.00;;;;;;5076608;28;20458;-74
2021/08/25 07:20:47;;;;;;;5.40;3.23;;;16.00;1.00;;;;;;5076610;28;20458;-73
2021/08/25 07:23:13;;;;;;;4.07;2.53;;;16.10;1.00;;;;;;5075852;28;20458;-75
2021/08/25 07:25:41;;;;;;;4.30;2.73;;;16.10;1.00;;;;;;5076228;28;20462;-74
2021/08/25 07:28:07;;;;;;;4.23;3.23;;;16.20;1.00;;;;;;5075443;28;20454;-74
2021/08/25 07:30:36;;;;;;;4.87;2.80;;;16.30;1.00;;;;;;5074565;28;20581;-74
2021/08/25 07:33:03;;;;;;;3.40;2.43;;;16.40;99.90;;;;;;5076450;28;20544;-74
2021/08/25 07:35:30;;;;;;;4.30;2.80;;;16.40;50.40;;;;;;5075631;28;20825;-73
2021/08/25 07:37:57;;;;;;;4.13;2.67;;;16.40;1.00;;;;;;5076159;28;20540;-74
2021/08/25 07:40:24;;;;;;;3.90;2.90;;;16.40;1.00;;;;;;5075628;28;20798;-73
2021/08/25 07:42:51;;;;;;;4.40;2.60;;;16.40;1.00;;;;;;5075389;28;20607;-73
2021/08/25 07:45:18;;;;;;;8.67;2.90;;;16.40;1.00;;;;;;5076773;28;20458;-74
2021/08/25 07:47:46;;;;;;;4.10;2.87;;;16.50;1.00;;;;;;5077473;28;20450;-74
2021/08/25 07:50:14;;;;;;;6.87;3.03;;;16.50;1.00;;;;;;5075961;28;20478;-72
2021/08/25 07:52:41;;;;;;;3.70;2.33;;;16.50;1.00;;;;;;5076467;28;20454;-74
2021/08/25 07:55:09;;;;;;;3.00;2.00;;;16.50;1.00;;;;;;5076138;28;20454;-74
2021/08/25 07:57:35;;;;;;;5.33;2.97;;;16.50;1.00;;;;;;5076532;28;20454;-73
2021/08/25 08:00:02;;;;;;;3.80;2.50;;;16.60;1.00;;;;;;5076278;28;20450;-74
2021/08/25 08:02:29;;;;;;;3.80;2.80;;;16.70;1.00;;;;;;5075585;28;20457;-74
2021/08/25 08:04:57;;;;;;;4.57;2.23;;;16.70;1.00;;;;;;5075237;28;20544;-74
2021/08/25 08:07:24;;;;;;;3.73;2.60;;;16.80;1.00;;;;;;5075366;28;20454;-74
2021/08/25 08:09:50;;;;;;;5.20;2.73;;;16.90;1.00;;;;;;5077610;28;20477;-73
2021/08/25 08:12:17;;;;;;;4.80;3.13;;;17.10;99.90;;;;;;5077352;28;20462;-72
2021/08/25 08:14:44;;;;;;;5.03;2.40;;;17.10;99.90;;;;;;5076783;28;20459;-74
2021/08/25 08:17:10;;;;;;;3.93;2.80;;;17.20;99.90;;;;;;5075888;28;20801;-72
2021/08/25 08:19:38;;;;;;;3.30;2.50;;;17.20;99.90;;;;;;5077391;28;20466;-73
2021/08/25 08:22:06;;;;;;;2.93;2.40;;;17.20;99.90;;;;;;5076633;28;20458;-74
2021/08/25 08:24:33;;;;;;;3.67;2.63;;;17.30;99.90;;;;;;5075527;28;20468;-73
2021/08/25 08:27:00;;;;;;;4.33;2.57;;;17.30;99.90;;;;;;5076084;28;20469;-73
2021/08/25 08:29:27;;;;;;;4.53;2.50;;;17.40;99.90;;;;;;5075946;28;20482;-73
2021/08/25 08:31:54;;;;;;;5.83;2.77;;;17.50;99.90;;;;;;5075714;28;20478;-73
2021/08/25 08:34:21;;;;;;;2.80;2.30;;;17.50;99.90;;;;;;5079618;28;20782;-74
2021/08/25 08:36:48;;;;;;;3.40;2.90;;;17.50;99.90;;;;;;5076512;28;20450;-75
2021/08/25 08:39:16;;;;;;;4.00;2.63;;;17.50;99.90;;;;;;5079471;28;20454;-74
2021/08/25 08:41:43;;;;;;;4.80;2.50;;;17.60;99.90;;;;;;5077129;28;20458;-72
2021/08/25 08:44:11;;;;;;;3.70;2.43;;;17.70;99.90;;;;;;5077242;28;20458;-75
2021/08/25 08:46:40;;;;;;;4.83;2.43;;;17.80;99.90;;;;;;5079098;28;21011;-74
2021/08/25 08:49:08;;;;;;;2.47;1.90;;;17.90;99.90;;;;;;5078149;28;20493;-74
2021/08/25 08:51:36;;;;;;;4.27;2.40;;;17.90;99.90;;;;;;5075773;28;20454;-74
2021/08/25 08:54:03;;;;;;;3.70;2.40;;;17.90;99.90;;;;;;5076646;28;20463;-74
2021/08/25 08:56:32;;;;;;;3.73;2.60;;;17.90;99.90;;;;;;5075474;28;20874;-74
2021/08/25 08:59:00;;;;;;;2.73;2.30;;;17.90;99.90;;;;;;5075533;28;20894;-75
2021/08/25 09:01:27;;;;;;;3.30;2.43;;;17.90;99.90;;;;;;5075484;28;20810;-74
2021/08/25 09:03:54;;;;;;;6.67;2.30;;;17.90;99.90;;;;;;5074654;28;20454;-74
2021/08/25 09:06:21;;;;;;;4.00;2.10;;;18.00;99.90;;;;;;5075529;28;20457;-74
2021/08/25 09:08:58;;;;;;;6.20;3.20;;;18.10;99.90;;;;;;5077551;28;20465;-74
2021/08/25 09:11:25;;;;;;;4.90;2.60;;;18.10;99.90;;;;;;5075119;28;20466;-75
2021/08/25 09:13:53;;;;;;;4.90;2.87;;;18.10;99.90;;;;;;5073515;28;20485;-73
2021/08/25 09:16:27;;;;;;;3.70;2.60;;;18.10;99.90;;;;;;5074648;28;20463;-73
2021/08/25 09:19:04;;;;;;;3.40;2.53;;;18.10;99.90;;;;;;5074951;28;20450;-73
2021/08/25 09:21:33;;;;;;;3.50;2.60;;;18.10;99.90;;;;;;5074723;28;20574;-76
2021/08/25 09:24:00;;;;;;;10.93;3.50;;;18.10;99.90;;;;;;5074519;28;20458;-74
2021/08/25 09:26:27;;;;;;;6.23;3.20;;;18.10;99.90;;;;;;5075153;28;20458;-74
2021/08/25 09:28:55;;;;;;;9.03;2.97;;;18.10;99.90;;;;;;5074942;28;20458;-75
2021/08/25 09:31:22;;;;;;;4.37;2.40;;;18.20;99.90;;;;;;5075411;28;20469;-74
2021/08/25 09:33:50;;;;;;;3.60;2.80;;;18.20;99.90;;;;;;5075445;28;20454;-74
2021/08/25 09:36:18;;;;;;;3.30;2.90;;;18.20;99.90;;;;;;5075645;28;20647;-73
2021/08/25 09:38:53;;;;;;;5.70;3.30;;;18.20;99.90;;;;;;5075114;28;20503;-74
2021/08/25 09:41:20;;;;;;;3.33;3.03;;;18.20;99.90;;;;;;5076438;28;20446;-74
2021/08/25 09:43:48;;;;;;;4.87;3.50;;;18.20;99.90;;;;;;5082457;28;20486;-74
2021/08/25 09:46:18;;;;;;;4.50;3.20;;;18.20;99.90;;;;;;5082416;28;20458;-73
2021/08/25 09:48:48;;;;;;;4.40;2.93;;;18.30;99.90;;;;;;5079168;28;20529;-73
2021/08/25 09:51:16;;;;;;;5.07;3.13;;;18.40;99.90;;;;;;5077913;28;20482;-74
2021/08/25 09:53:45;;;;;;;4.80;2.70;;;18.40;99.90;;;;;;5077373;28;20462;-74
2021/08/25 09:56:22;;;;;;;3.67;2.83;;;18.50;99.90;;;;;;5077342;28;20454;-74
2021/08/25 09:58:49;;;;;;;5.00;2.70;;;18.50;99.90;;;;;;5077512;28;20454;-74
2021/08/25 10:01:19;;;;;;;6.50;4.73;;;18.50;99.90;;;;;;5076561;28;20461;-74
2021/08/25 10:03:46;;;;;;;9.87;2.73;;;18.40;99.90;;;;;;5077168;28;20457;-74
2021/08/25 10:06:15;;;;;;;7.33;3.23;;;18.40;99.90;;;;;;5076127;28;20520;-74
2021/08/25 10:08:43;;;;;;;7.57;3.40;;;18.40;99.90;;;;;;5075803;28;20458;-75
2021/08/25 10:11:10;;;;;;;5.93;2.80;;;18.40;99.90;;;;;;5075499;28;20506;-74
2021/08/25 10:13:40;;;;;;;6.73;3.17;;;18.30;99.90;;;;;;5075034;28;20922;-73
2021/08/25 10:16:11;;;;;;;5.80;3.03;;;18.20;99.90;;;;;;5075595;28;20465;-74
2021/08/25 10:18:41;;;;;;;4.03;2.80;;;18.10;99.90;;;;;;5074732;28;20438;-75
2021/08/25 10:21:41;;;;;;;2.97;2.47;;;18.10;99.90;;;;;;5074170;28;20465;-74
2021/08/25 10:24:08;;;;;;;4.70;2.87;;;18.10;99.90;;;;;;5074757;28;20541;-74
2021/08/25 10:27:07;;;;;;;5.50;3.20;;;18.10;99.90;;;;;;5077488;28;20454;-73
2021/08/25 10:29:34;;;;;;;7.40;3.20;;;18.00;99.90;;;;;;5078077;28;20473;-74
2021/08/25 10:32:17;;;;;;;5.20;2.57;;;18.00;99.90;;;;;;5077915;28;20466;-76
2021/08/25 10:35:05;;;;;;;7.03;2.57;;;18.00;99.90;;;;;;5078323;28;20447;-75
2021/08/25 10:37:32;;;;;;;6.53;3.30;;;18.00;99.90;;;;;;5078315;28;20508;-73
2021/08/25 10:40:03;;;;;;;3.80;2.50;;;18.00;99.90;;;;;;5079438;28;20454;-74
2021/08/25 10:42:51;;;;;;;5.07;2.63;;;18.00;99.90;;;;;;5079760;28;20978;-74
2021/08/25 10:45:50;;;;;;;4.97;3.57;;;18.10;99.90;;;;;;5077826;28;20489;-75
2021/08/25 10:48:17;;;;;;;3.53;2.73;;;18.10;99.90;;;;;;5077110;28;20540;-75
2021/08/25 10:50:50;;;;;;;4.57;3.10;;;18.10;99.90;;;;;;5076882;28;20876;-74
2021/08/25 10:53:36;;;;;;;4.70;3.10;;;18.20;99.90;;;;;;5077355;28;20454;-74
2021/08/25 10:56:06;;;;;;;4.70;2.97;;;18.30;99.90;;;;;;5076872;28;20872;-74
2021/08/25 10:58:42;;;;;;;7.10;2.63;;;18.40;99.90;;;;;;5077239;28;20447;-74
2021/08/25 11:01:24;;;;;;;4.40;2.90;;;18.50;99.90;;;;;;5077448;28;20492;-75
2021/08/25 11:03:52;;;;;;;5.17;3.00;;;18.50;99.90;;;;;;5077266;28;20438;-74
2021/08/25 11:06:38;;;;;;;4.90;3.37;;;18.60;99.90;;;;;;5077345;28;20465;-73
2021/08/25 11:09:15;;;;;;;4.07;2.60;;;18.80;99.90;;;;;;5076208;28;20471;-73
2021/08/25 11:11:45;;;;;;;5.07;2.60;;;19.00;99.90;;;;;;5076871;28;20477;-75
2021/08/25 11:14:21;;;;;;;6.90;2.70;;;19.00;99.90;;;;;;5076963;28;20482;-73
2021/08/25 11:16:48;;;;;;;3.67;2.80;;;18.90;99.90;;;;;;5076657;28;20449;-73
2021/08/25 11:19:26;;;;;;;5.23;2.90;;;19.00;99.90;;;;;;5077133;28;20543;-74
2021/08/25 11:21:55;;;;;;;5.40;3.43;;;19.00;99.90;;;;;;5077275;28;20434;-73
2021/08/25 11:24:22;;;;;;;4.47;2.20;;;19.10;99.90;;;;;;5078047;28;20454;-73
2021/08/25 11:26:49;;;;;;;9.03;2.93;;;19.30;99.90;;;;;;5076389;28;20763;-73
2021/08/25 11:29:18;;;;;;;5.07;2.50;;;19.60;99.90;;;;;;5076464;28;20458;-74
2021/08/25 11:31:45;;;;;;;3.57;2.83;;;20.00;99.90;;;;;;5076026;28;20482;-74
2021/08/25 11:34:13;;;;;;;3.60;2.50;;;20.40;99.90;;;;;;5077329;28;20469;-72
2021/08/25 11:36:54;;;;;;;6.17;3.20;;;20.60;99.90;;;;;;5075688;28;20482;-73
2021/08/25 11:39:21;;;;;;;4.20;2.70;;;21.30;99.90;;;;;;5075873;28;20465;-75
2021/08/25 11:41:48;;;;;;;3.10;2.80;;;22.00;68.70;;;;;;5075983;28;20834;-74
2021/08/25 11:44:15;;;;;;;3.30;2.50;;;22.40;11.50;;;;;;5075967;28;20472;-73
2021/08/25 11:46:42;;;;;;;3.60;2.77;;;23.00;1.00;;;;;;5077255;28;20545;-75
2021/08/25 11:49:09;;;;;;;6.87;3.27;;;23.40;1.00;;;;;;5076581;28;20490;-76
2021/08/25 11:51:38;;;;;;;3.23;2.70;;;24.10;1.00;;;;;;5075833;28;20478;-74
2021/08/25 11:54:06;;;;;;;5.57;2.93;;;24.70;1.00;;;;;;5075606;28;20625;-76
2021/08/25 11:56:32;;;;;;;5.37;2.83;;;24.90;1.00;;;;;;5075932;28;20534;-73
2021/08/25 11:59:09;;;;;;;3.23;2.60;;;25.20;1.00;;;;;;5075549;28;20547;-75
2021/08/25 12:01:35;;;;;;;7.33;3.33;;;25.40;1.00;;;;;;5076643;28;20530;-73
2021/08/25 12:04:02;;;;;;;6.70;2.47;;;25.60;1.00;;;;;;5075544;28;20454;-73
2021/08/25 12:06:42;;;;;;;8.53;2.60;;;25.50;1.00;;;;;;5075945;28;20454;-73
2021/08/25 12:09:10;;;;;;;5.23;3.47;;;25.30;1.00;;;;;;5075615;28;20518;-76
2021/08/25 12:11:55;;;;;;;8.87;3.23;;;25.10;1.00;;;;;;5075447;28;20486;-74
2021/08/25 12:14:22;;;;;;;2.77;2.57;;;24.60;1.00;;;;;;5075216;28;20435;-73
2021/08/25 12:17:03;;;;;;;4.10;2.90;;;24.40;1.00;;;;;;5075058;28;20450;-75
2021/08/25 12:19:30;;;;;;;6.13;3.20;;;24.00;1.00;;;;;;5075843;28;20496;-74
2021/08/25 12:21:57;;;;;;;4.40;2.90;;;23.60;1.00;;;;;;5074500;28;20522;-73
2021/08/25 12:24:28;;;;;;;4.27;3.10;;;23.60;1.00;;;;;;5075152;28;20517;-73
2021/08/25 12:26:56;;;;;;;6.33;3.10;;;23.30;1.00;;;;;;5075159;28;20477;-74
2021/08/25 12:29:29;;;;;;;5.03;2.90;;;22.80;1.00;;;;;;5074941;28;20442;-74
2021/08/25 12:31:58;;;;;;;4.27;3.13;;;22.20;1.00;;;;;;5075468;28;20520;-73
2021/08/25 12:34:24;;;;;;;4.50;2.90;;;22.10;1.00;;;;;;5075287;28;20465;-74
2021/08/25 12:36:56;;;;;;;3.13;2.70;;;22.00;1.00;;;;;;5074867;28;20786;-74
2021/08/25 12:39:27;;;;;;;4.87;3.13;;;22.40;1.00;;;;;;5074999;28;20454;-74
2021/08/25 12:41:55;;;;;;;4.90;3.20;;;22.90;1.00;;;;;;5074842;28;20438;-76
2021/08/25 12:44:22;;;;;;;3.10;2.57;;;23.10;1.00;;;;;;5074777;28;20453;-76
2021/08/25 12:46:51;;;;;;;3.50;2.80;;;23.20;1.00;;;;;;5074230;28;20454;-74
2021/08/25 12:49:18;;;;;;;4.83;3.23;;;23.10;1.00;;;;;;5073921;28;20817;-74
2021/08/25 12:51:45;;;;;;;5.47;2.70;;;23.40;1.00;;;;;;5073890;28;20482;-74
2021/08/25 12:54:12;;;;;;;3.03;2.60;;;23.50;1.00;;;;;;5074184;28;20458;-74